sensor_id;sensor_type;location;lat;lon;timestamp;P1;durP1;ratioP1;P2;durP2;ratioP2
6145;SDS011;3104;50.348;7.620;2023-08-06T00:00:03;4.60;;;3.17;;
6145;SDS011;3104;50.348;7.620;2023-08-06T00:02:29;3.50;;;3.30;;
6145;SDS011;3104;50.348;7.620;2023-08-06T00:04:55;4.03;;;3.73;;
6145;SDS011;3104;50.348;7.620;2023-08-06T00:07:21;4.27;;;3.87;;
6145;SDS011;3104;50.348;7.620;2023-08-06T00:09:46;4.20;;;3.80;;
6145;SDS011;3104;50.348;7.620;2023-08-06T00:12:12;4.50;;;3.70;;
6145;SDS011;3104;50.348;7.620;2023-08-06T00:14:37;4.03;;;3.53;;
6145;SDS011;3104;50.348;7.620;2023-08-06T00:17:03;4.07;;;3.60;;
6145;SDS011;3104;50.348;7.620;2023-08-06T00:19:29;4.93;;;4.00;;
6145;SDS011;3104;50.348;7.620;2023-08-06T00:21:56;4.20;;;3.90;;
6145;SDS011;3104;50.348;7.620;2023-08-06T00:24:21;4.57;;;4.17;;
6145;SDS011;3104;50.348;7.620;2023-08-06T00:26:47;4.30;;;3.90;;
6145;SDS011;3104;50.348;7.620;2023-08-06T00:29:12;3.30;;;3.10;;
6145;SDS011;3104;50.348;7.620;2023-08-06T00:31:38;5.10;;;4.70;;
6145;SDS011;3104;50.348;7.620;2023-08-06T00:34:03;4.67;;;4.27;;
6145;SDS011;3104;50.348;7.620;2023-08-06T00:36:29;5.93;;;5.43;;
6145;SDS011;3104;50.348;7.620;2023-08-06T00:38:54;4.27;;;3.87;;
6145;SDS011;3104;50.348;7.620;2023-08-06T00:41:20;4.43;;;4.03;;
6145;SDS011;3104;50.348;7.620;2023-08-06T00:43:46;4.13;;;3.80;;
6145;SDS011;3104;50.348;7.620;2023-08-06T00:46:12;4.23;;;3.93;;
6145;SDS011;3104;50.348;7.620;2023-08-06T00:48:38;4.93;;;4.63;;
6145;SDS011;3104;50.348;7.620;2023-08-06T00:51:04;4.23;;;3.93;;
6145;SDS011;3104;50.348;7.620;2023-08-06T00:53:30;4.10;;;3.80;;
6145;SDS011;3104;50.348;7.620;2023-08-06T00:55:56;9.37;;;6.43;;
6145;SDS011;3104;50.348;7.620;2023-08-06T00:58:22;4.33;;;3.93;;
6145;SDS011;3104;50.348;7.620;2023-08-06T01:00:47;4.60;;;3.57;;
6145;SDS011;3104;50.348;7.620;2023-08-06T01:03:13;5.07;;;4.30;;
6145;SDS011;3104;50.348;7.620;2023-08-06T01:05:38;4.40;;;3.77;;
6145;SDS011;3104;50.348;7.620;2023-08-06T01:10:58;5.93;;;3.80;;
6145;SDS011;3104;50.348;7.620;2023-08-06T01:16:18;3.80;;;3.50;;
6145;SDS011;3104;50.348;7.620;2023-08-06T01:18:46;4.47;;;4.17;;
6145;SDS011;3104;50.348;7.620;2023-08-06T01:21:14;3.73;;;3.53;;
6145;SDS011;3104;50.348;7.620;2023-08-06T01:23:41;5.20;;;4.70;;
6145;SDS011;3104;50.348;7.620;2023-08-06T01:26:10;4.10;;;3.80;;
6145;SDS011;3104;50.348;7.620;2023-08-06T01:31:32;5.17;;;4.67;;
6145;SDS011;3104;50.348;7.620;2023-08-06T01:34:03;3.97;;;3.60;;
6145;SDS011;3104;50.348;7.620;2023-08-06T01:36:30;4.93;;;3.87;;
6145;SDS011;3104;50.348;7.620;2023-08-06T01:38:57;4.60;;;4.27;;
6145;SDS011;3104;50.348;7.620;2023-08-06T01:41:23;6.70;;;4.30;;
6145;SDS011;3104;50.348;7.620;2023-08-06T01:43:48;4.87;;;3.70;;
6145;SDS011;3104;50.348;7.620;2023-08-06T01:46:14;3.80;;;3.60;;
6145;SDS011;3104;50.348;7.620;2023-08-06T01:48:39;5.43;;;3.83;;
6145;SDS011;3104;50.348;7.620;2023-08-06T01:51:05;3.70;;;3.40;;
6145;SDS011;3104;50.348;7.620;2023-08-06T01:53:31;3.70;;;3.40;;
6145;SDS011;3104;50.348;7.620;2023-08-06T01:55:57;4.10;;;3.13;;
6145;SDS011;3104;50.348;7.620;2023-08-06T01:58:23;5.10;;;3.60;;
6145;SDS011;3104;50.348;7.620;2023-08-06T02:00:48;3.83;;;3.60;;
6145;SDS011;3104;50.348;7.620;2023-08-06T02:03:14;3.60;;;3.30;;
6145;SDS011;3104;50.348;7.620;2023-08-06T02:05:40;5.43;;;4.10;;
6145;SDS011;3104;50.348;7.620;2023-08-06T02:08:05;5.27;;;3.30;;
6145;SDS011;3104;50.348;7.620;2023-08-06T02:10:31;2.83;;;2.40;;
6145;SDS011;3104;50.348;7.620;2023-08-06T02:12:57;3.07;;;2.87;;
6145;SDS011;3104;50.348;7.620;2023-08-06T02:15:22;3.33;;;3.03;;
6145;SDS011;3104;50.348;7.620;2023-08-06T02:17:48;3.13;;;2.83;;
6145;SDS011;3104;50.348;7.620;2023-08-06T02:20:13;4.10;;;2.97;;
6145;SDS011;3104;50.348;7.620;2023-08-06T02:22:39;3.23;;;2.93;;
6145;SDS011;3104;50.348;7.620;2023-08-06T02:25:05;3.33;;;2.67;;
6145;SDS011;3104;50.348;7.620;2023-08-06T02:27:30;3.13;;;2.83;;
6145;SDS011;3104;50.348;7.620;2023-08-06T02:29:56;3.23;;;2.93;;
6145;SDS011;3104;50.348;7.620;2023-08-06T02:32:21;4.43;;;3.10;;
6145;SDS011;3104;50.348;7.620;2023-08-06T02:34:47;5.40;;;2.87;;
6145;SDS011;3104;50.348;7.620;2023-08-06T02:37:12;3.43;;;3.13;;
6145;SDS011;3104;50.348;7.620;2023-08-06T02:39:38;2.77;;;2.57;;
6145;SDS011;3104;50.348;7.620;2023-08-06T02:42:05;2.50;;;2.30;;
6145;SDS011;3104;50.348;7.620;2023-08-06T02:44:31;2.80;;;2.50;;
6145;SDS011;3104;50.348;7.620;2023-08-06T02:46:57;2.97;;;2.73;;
6145;SDS011;3104;50.348;7.620;2023-08-06T02:49:22;3.17;;;2.40;;
6145;SDS011;3104;50.348;7.620;2023-08-06T02:51:48;3.30;;;3.00;;
6145;SDS011;3104;50.348;7.620;2023-08-06T02:54:13;2.90;;;2.70;;
6145;SDS011;3104;50.348;7.620;2023-08-06T02:56:42;3.97;;;2.90;;
6145;SDS011;3104;50.348;7.620;2023-08-06T02:59:09;2.80;;;2.57;;
6145;SDS011;3104;50.348;7.620;2023-08-06T03:01:34;4.10;;;2.80;;
6145;SDS011;3104;50.348;7.620;2023-08-06T03:04:01;4.80;;;2.97;;
6145;SDS011;3104;50.348;7.620;2023-08-06T03:06:26;2.90;;;2.50;;
6145;SDS011;3104;50.348;7.620;2023-08-06T03:08:52;5.30;;;2.73;;
6145;SDS011;3104;50.348;7.620;2023-08-06T03:11:17;3.20;;;2.70;;
6145;SDS011;3104;50.348;7.620;2023-08-06T03:13:43;2.67;;;2.47;;
6145;SDS011;3104;50.348;7.620;2023-08-06T03:16:08;2.73;;;2.53;;
6145;SDS011;3104;50.348;7.620;2023-08-06T03:18:34;6.57;;;2.80;;
6145;SDS011;3104;50.348;7.620;2023-08-06T03:20:59;2.50;;;2.30;;
6145;SDS011;3104;50.348;7.620;2023-08-06T03:23:25;3.00;;;2.70;;
6145;SDS011;3104;50.348;7.620;2023-08-06T03:25:51;5.30;;;2.60;;
6145;SDS011;3104;50.348;7.620;2023-08-06T03:28:16;2.80;;;2.60;;
6145;SDS011;3104;50.348;7.620;2023-08-06T03:30:42;3.23;;;2.70;;
6145;SDS011;3104;50.348;7.620;2023-08-06T03:33:07;3.47;;;3.10;;
6145;SDS011;3104;50.348;7.620;2023-08-06T03:35:33;2.90;;;2.70;;
6145;SDS011;3104;50.348;7.620;2023-08-06T03:37:58;4.07;;;2.43;;
6145;SDS011;3104;50.348;7.620;2023-08-06T03:40:24;3.23;;;2.47;;
6145;SDS011;3104;50.348;7.620;2023-08-06T03:42:49;4.07;;;2.70;;
6145;SDS011;3104;50.348;7.620;2023-08-06T03:45:15;2.93;;;2.73;;
6145;SDS011;3104;50.348;7.620;2023-08-06T03:47:41;6.57;;;3.90;;
6145;SDS011;3104;50.348;7.620;2023-08-06T03:50:06;6.17;;;5.60;;
6145;SDS011;3104;50.348;7.620;2023-08-06T03:52:32;10.67;;;7.57;;
6145;SDS011;3104;50.348;7.620;2023-08-06T03:54:58;4.20;;;3.50;;
6145;SDS011;3104;50.348;7.620;2023-08-06T03:57:23;2.73;;;2.53;;
6145;SDS011;3104;50.348;7.620;2023-08-06T03:59:49;3.27;;;3.07;;
6145;SDS011;3104;50.348;7.620;2023-08-06T04:02:15;3.30;;;2.50;;
6145;SDS011;3104;50.348;7.620;2023-08-06T04:04:40;2.87;;;2.67;;
6145;SDS011;3104;50.348;7.620;2023-08-06T04:07:06;2.67;;;2.47;;
6145;SDS011;3104;50.348;7.620;2023-08-06T04:09:31;2.63;;;2.43;;
6145;SDS011;3104;50.348;7.620;2023-08-06T04:11:57;5.10;;;2.80;;
6145;SDS011;3104;50.348;7.620;2023-08-06T04:14:23;3.07;;;2.80;;
6145;SDS011;3104;50.348;7.620;2023-08-06T04:16:51;2.93;;;2.50;;
6145;SDS011;3104;50.348;7.620;2023-08-06T04:19:16;3.60;;;3.27;;
6145;SDS011;3104;50.348;7.620;2023-08-06T04:21:42;2.60;;;2.40;;
6145;SDS011;3104;50.348;7.620;2023-08-06T04:24:07;2.93;;;2.73;;
6145;SDS011;3104;50.348;7.620;2023-08-06T04:26:33;2.63;;;2.43;;
6145;SDS011;3104;50.348;7.620;2023-08-06T04:28:58;2.83;;;2.27;;
6145;SDS011;3104;50.348;7.620;2023-08-06T04:31:24;3.03;;;2.57;;
6145;SDS011;3104;50.348;7.620;2023-08-06T04:33:49;2.70;;;2.10;;
6145;SDS011;3104;50.348;7.620;2023-08-06T04:36:15;2.63;;;2.37;;
6145;SDS011;3104;50.348;7.620;2023-08-06T04:38:40;2.10;;;1.90;;
6145;SDS011;3104;50.348;7.620;2023-08-06T04:41:11;2.50;;;2.37;;
6145;SDS011;3104;50.348;7.620;2023-08-06T04:43:36;2.20;;;2.10;;
6145;SDS011;3104;50.348;7.620;2023-08-06T04:46:02;1.97;;;1.70;;
6145;SDS011;3104;50.348;7.620;2023-08-06T04:48:28;3.00;;;2.10;;
6145;SDS011;3104;50.348;7.620;2023-08-06T04:50:53;4.87;;;2.73;;
6145;SDS011;3104;50.348;7.620;2023-08-06T04:53:19;3.00;;;1.70;;
6145;SDS011;3104;50.348;7.620;2023-08-06T04:55:45;1.93;;;1.83;;
6145;SDS011;3104;50.348;7.620;2023-08-06T04:58:12;1.70;;;1.60;;
6145;SDS011;3104;50.348;7.620;2023-08-06T05:00:38;1.70;;;1.60;;
6145;SDS011;3104;50.348;7.620;2023-08-06T05:03:04;2.07;;;1.57;;
6145;SDS011;3104;50.348;7.620;2023-08-06T05:05:30;3.27;;;1.77;;
6145;SDS011;3104;50.348;7.620;2023-08-06T05:07:56;1.93;;;1.43;;
6145;SDS011;3104;50.348;7.620;2023-08-06T05:10:25;3.90;;;1.40;;
6145;SDS011;3104;50.348;7.620;2023-08-06T05:12:51;1.30;;;0.97;;
6145;SDS011;3104;50.348;7.620;2023-08-06T05:15:16;1.17;;;1.10;;
6145;SDS011;3104;50.348;7.620;2023-08-06T05:17:42;2.87;;;1.47;;
6145;SDS011;3104;50.348;7.620;2023-08-06T05:20:08;1.90;;;1.20;;
6145;SDS011;3104;50.348;7.620;2023-08-06T05:22:34;1.80;;;1.70;;
6145;SDS011;3104;50.348;7.620;2023-08-06T05:24:59;2.07;;;1.97;;
6145;SDS011;3104;50.348;7.620;2023-08-06T05:27:25;1.13;;;1.13;;
6145;SDS011;3104;50.348;7.620;2023-08-06T05:29:54;2.00;;;1.90;;
6145;SDS011;3104;50.348;7.620;2023-08-06T05:32:21;2.30;;;1.47;;
6145;SDS011;3104;50.348;7.620;2023-08-06T05:34:47;1.10;;;1.00;;
6145;SDS011;3104;50.348;7.620;2023-08-06T05:37:12;1.00;;;0.90;;
6145;SDS011;3104;50.348;7.620;2023-08-06T05:39:38;1.17;;;1.00;;
6145;SDS011;3104;50.348;7.620;2023-08-06T05:42:03;1.03;;;0.87;;
6145;SDS011;3104;50.348;7.620;2023-08-06T05:44:29;1.03;;;0.93;;
6145;SDS011;3104;50.348;7.620;2023-08-06T05:46:55;0.93;;;0.93;;
6145;SDS011;3104;50.348;7.620;2023-08-06T05:49:20;0.80;;;0.80;;
6145;SDS011;3104;50.348;7.620;2023-08-06T05:51:46;0.90;;;0.90;;
6145;SDS011;3104;50.348;7.620;2023-08-06T05:54:11;2.10;;;0.80;;
6145;SDS011;3104;50.348;7.620;2023-08-06T05:56:37;0.67;;;0.67;;
6145;SDS011;3104;50.348;7.620;2023-08-06T05:59:03;1.20;;;0.70;;
6145;SDS011;3104;50.348;7.620;2023-08-06T06:01:28;0.90;;;0.90;;
6145;SDS011;3104;50.348;7.620;2023-08-06T06:03:54;0.80;;;0.80;;
6145;SDS011;3104;50.348;7.620;2023-08-06T06:06:19;1.87;;;0.83;;
6145;SDS011;3104;50.348;7.620;2023-08-06T06:08:45;0.73;;;0.73;;
6145;SDS011;3104;50.348;7.620;2023-08-06T06:11:11;0.83;;;0.70;;
6145;SDS011;3104;50.348;7.620;2023-08-06T06:13:36;1.67;;;1.30;;
6145;SDS011;3104;50.348;7.620;2023-08-06T06:16:02;0.70;;;0.70;;
6145;SDS011;3104;50.348;7.620;2023-08-06T06:18:27;0.60;;;0.60;;
6145;SDS011;3104;50.348;7.620;2023-08-06T06:20:53;0.70;;;0.70;;
6145;SDS011;3104;50.348;7.620;2023-08-06T06:23:18;0.77;;;0.73;;
6145;SDS011;3104;50.348;7.620;2023-08-06T06:25:48;0.93;;;0.90;;
6145;SDS011;3104;50.348;7.620;2023-08-06T06:28:14;0.60;;;0.60;;
6145;SDS011;3104;50.348;7.620;2023-08-06T06:30:42;1.27;;;0.70;;
6145;SDS011;3104;50.348;7.620;2023-08-06T06:33:07;0.80;;;0.80;;
6145;SDS011;3104;50.348;7.620;2023-08-06T06:35:33;0.70;;;0.70;;
6145;SDS011;3104;50.348;7.620;2023-08-06T06:37:59;1.47;;;0.70;;
6145;SDS011;3104;50.348;7.620;2023-08-06T06:40:25;0.60;;;0.60;;
6145;SDS011;3104;50.348;7.620;2023-08-06T06:42:50;1.13;;;0.80;;
6145;SDS011;3104;50.348;7.620;2023-08-06T06:45:16;0.60;;;0.60;;
6145;SDS011;3104;50.348;7.620;2023-08-06T06:47:42;0.67;;;0.67;;
6145;SDS011;3104;50.348;7.620;2023-08-06T06:50:07;0.70;;;0.70;;
6145;SDS011;3104;50.348;7.620;2023-08-06T06:52:33;0.70;;;0.70;;
6145;SDS011;3104;50.348;7.620;2023-08-06T06:54:59;0.50;;;0.50;;
6145;SDS011;3104;50.348;7.620;2023-08-06T06:57:24;2.43;;;0.93;;
6145;SDS011;3104;50.348;7.620;2023-08-06T06:59:50;0.60;;;0.60;;
6145;SDS011;3104;50.348;7.620;2023-08-06T07:02:15;0.90;;;0.90;;
6145;SDS011;3104;50.348;7.620;2023-08-06T07:04:41;0.60;;;0.60;;
6145;SDS011;3104;50.348;7.620;2023-08-06T07:07:06;0.80;;;0.80;;
6145;SDS011;3104;50.348;7.620;2023-08-06T07:09:32;0.80;;;0.80;;
6145;SDS011;3104;50.348;7.620;2023-08-06T07:11:58;0.80;;;0.77;;
6145;SDS011;3104;50.348;7.620;2023-08-06T07:14:25;0.50;;;0.50;;
6145;SDS011;3104;50.348;7.620;2023-08-06T07:16:50;0.60;;;0.60;;
6145;SDS011;3104;50.348;7.620;2023-08-06T07:19:16;0.90;;;0.90;;
6145;SDS011;3104;50.348;7.620;2023-08-06T07:21:42;0.90;;;0.60;;
6145;SDS011;3104;50.348;7.620;2023-08-06T07:24:07;0.70;;;0.70;;
6145;SDS011;3104;50.348;7.620;2023-08-06T07:26:33;2.00;;;1.90;;
6145;SDS011;3104;50.348;7.620;2023-08-06T07:28:58;2.53;;;2.37;;
6145;SDS011;3104;50.348;7.620;2023-08-06T07:31:24;0.90;;;0.90;;
6145;SDS011;3104;50.348;7.620;2023-08-06T07:33:50;0.80;;;0.80;;
6145;SDS011;3104;50.348;7.620;2023-08-06T07:36:16;0.67;;;0.67;;
6145;SDS011;3104;50.348;7.620;2023-08-06T07:38:42;0.93;;;0.70;;
6145;SDS011;3104;50.348;7.620;2023-08-06T07:41:08;0.73;;;0.73;;
6145;SDS011;3104;50.348;7.620;2023-08-06T07:43:33;0.70;;;0.70;;
6145;SDS011;3104;50.348;7.620;2023-08-06T07:46:00;0.70;;;0.70;;
6145;SDS011;3104;50.348;7.620;2023-08-06T07:48:27;1.07;;;0.70;;
6145;SDS011;3104;50.348;7.620;2023-08-06T07:50:56;0.70;;;0.70;;
6145;SDS011;3104;50.348;7.620;2023-08-06T07:53:22;1.00;;;0.90;;
6145;SDS011;3104;50.348;7.620;2023-08-06T07:55:51;0.80;;;0.73;;
6145;SDS011;3104;50.348;7.620;2023-08-06T07:58:18;1.90;;;0.73;;
6145;SDS011;3104;50.348;7.620;2023-08-06T08:00:45;1.20;;;1.10;;
6145;SDS011;3104;50.348;7.620;2023-08-06T08:03:14;0.60;;;0.60;;
6145;SDS011;3104;50.348;7.620;2023-08-06T08:05:41;0.63;;;0.63;;
6145;SDS011;3104;50.348;7.620;2023-08-06T08:08:09;0.97;;;0.70;;
6145;SDS011;3104;50.348;7.620;2023-08-06T08:10:35;0.70;;;0.70;;
6145;SDS011;3104;50.348;7.620;2023-08-06T08:13:01;1.17;;;0.90;;
6145;SDS011;3104;50.348;7.620;2023-08-06T08:15:28;0.93;;;0.93;;
6145;SDS011;3104;50.348;7.620;2023-08-06T08:17:54;1.93;;;1.10;;
6145;SDS011;3104;50.348;7.620;2023-08-06T08:20:20;0.70;;;0.70;;
6145;SDS011;3104;50.348;7.620;2023-08-06T08:22:46;1.53;;;0.80;;
6145;SDS011;3104;50.348;7.620;2023-08-06T08:25:11;1.13;;;0.83;;
6145;SDS011;3104;50.348;7.620;2023-08-06T08:27:37;1.00;;;1.00;;
6145;SDS011;3104;50.348;7.620;2023-08-06T08:30:03;1.23;;;0.80;;
6145;SDS011;3104;50.348;7.620;2023-08-06T08:32:29;0.90;;;0.90;;
6145;SDS011;3104;50.348;7.620;2023-08-06T08:34:54;0.80;;;0.80;;
6145;SDS011;3104;50.348;7.620;2023-08-06T08:37:20;1.70;;;0.90;;
6145;SDS011;3104;50.348;7.620;2023-08-06T08:39:46;0.67;;;0.67;;
6145;SDS011;3104;50.348;7.620;2023-08-06T08:42:11;1.50;;;0.70;;
6145;SDS011;3104;50.348;7.620;2023-08-06T08:44:37;0.60;;;0.60;;
6145;SDS011;3104;50.348;7.620;2023-08-06T08:47:05;0.60;;;0.60;;
6145;SDS011;3104;50.348;7.620;2023-08-06T08:49:31;1.47;;;0.83;;
6145;SDS011;3104;50.348;7.620;2023-08-06T08:51:57;0.60;;;0.60;;
6145;SDS011;3104;50.348;7.620;2023-08-06T08:54:26;0.87;;;0.70;;
6145;SDS011;3104;50.348;7.620;2023-08-06T08:56:53;0.83;;;0.70;;
6145;SDS011;3104;50.348;7.620;2023-08-06T08:59:20;0.70;;;0.70;;
6145;SDS011;3104;50.348;7.620;2023-08-06T09:01:45;0.67;;;0.67;;
6145;SDS011;3104;50.348;7.620;2023-08-06T09:04:16;0.70;;;0.70;;
6145;SDS011;3104;50.348;7.620;2023-08-06T09:06:42;0.90;;;0.90;;
6145;SDS011;3104;50.348;7.620;2023-08-06T09:09:20;0.60;;;0.60;;
6145;SDS011;3104;50.348;7.620;2023-08-06T09:11:51;0.70;;;0.70;;
6145;SDS011;3104;50.348;7.620;2023-08-06T09:14:17;0.70;;;0.70;;
6145;SDS011;3104;50.348;7.620;2023-08-06T09:16:43;0.60;;;0.60;;
6145;SDS011;3104;50.348;7.620;2023-08-06T09:21:41;2.33;;;0.73;;
6145;SDS011;3104;50.348;7.620;2023-08-06T09:24:11;0.80;;;0.80;;
6145;SDS011;3104;50.348;7.620;2023-08-06T09:26:40;0.70;;;0.70;;
6145;SDS011;3104;50.348;7.620;2023-08-06T09:29:07;0.73;;;0.73;;
6145;SDS011;3104;50.348;7.620;2023-08-06T09:31:42;0.80;;;0.80;;
6145;SDS011;3104;50.348;7.620;2023-08-06T09:34:16;0.80;;;0.80;;
6145;SDS011;3104;50.348;7.620;2023-08-06T09:36:48;0.60;;;0.60;;
6145;SDS011;3104;50.348;7.620;2023-08-06T09:39:30;3.10;;;1.23;;
6145;SDS011;3104;50.348;7.620;2023-08-06T09:41:56;4.10;;;1.47;;
6145;SDS011;3104;50.348;7.620;2023-08-06T09:44:24;1.40;;;1.03;;
6145;SDS011;3104;50.348;7.620;2023-08-06T09:46:53;1.83;;;1.70;;
6145;SDS011;3104;50.348;7.620;2023-08-06T09:49:19;1.23;;;0.90;;
6145;SDS011;3104;50.348;7.620;2023-08-06T09:51:46;0.90;;;0.90;;
6145;SDS011;3104;50.348;7.620;2023-08-06T09:54:15;0.90;;;0.90;;
6145;SDS011;3104;50.348;7.620;2023-08-06T09:56:42;2.30;;;0.97;;
6145;SDS011;3104;50.348;7.620;2023-08-06T09:59:08;1.17;;;1.07;;
6145;SDS011;3104;50.348;7.620;2023-08-06T10:01:34;1.30;;;1.20;;
6145;SDS011;3104;50.348;7.620;2023-08-06T10:04:05;1.07;;;0.97;;
6145;SDS011;3104;50.348;7.620;2023-08-06T10:06:36;1.50;;;1.40;;
6145;SDS011;3104;50.348;7.620;2023-08-06T10:09:05;2.40;;;1.30;;
6145;SDS011;3104;50.348;7.620;2023-08-06T10:11:31;2.87;;;1.60;;
6145;SDS011;3104;50.348;7.620;2023-08-06T10:16:33;1.50;;;1.40;;
6145;SDS011;3104;50.348;7.620;2023-08-06T10:19:00;1.53;;;1.43;;
6145;SDS011;3104;50.348;7.620;2023-08-06T10:21:28;1.53;;;1.43;;
6145;SDS011;3104;50.348;7.620;2023-08-06T10:23:55;1.07;;;1.07;;
6145;SDS011;3104;50.348;7.620;2023-08-06T10:26:25;1.43;;;1.33;;
6145;SDS011;3104;50.348;7.620;2023-08-06T10:28:52;1.80;;;1.70;;
6145;SDS011;3104;50.348;7.620;2023-08-06T10:31:18;2.00;;;1.70;;
6145;SDS011;3104;50.348;7.620;2023-08-06T10:33:44;1.70;;;1.60;;
6145;SDS011;3104;50.348;7.620;2023-08-06T10:36:12;0.90;;;0.90;;
6145;SDS011;3104;50.348;7.620;2023-08-06T10:38:45;0.90;;;0.90;;
6145;SDS011;3104;50.348;7.620;2023-08-06T10:41:21;1.10;;;1.10;;
6145;SDS011;3104;50.348;7.620;2023-08-06T10:44:06;1.03;;;1.03;;
6145;SDS011;3104;50.348;7.620;2023-08-06T10:46:36;1.00;;;1.00;;
6145;SDS011;3104;50.348;7.620;2023-08-06T10:49:05;1.47;;;0.87;;
6145;SDS011;3104;50.348;7.620;2023-08-06T10:51:32;1.33;;;0.80;;
6145;SDS011;3104;50.348;7.620;2023-08-06T10:53:57;0.80;;;0.80;;
6145;SDS011;3104;50.348;7.620;2023-08-06T10:56:24;0.77;;;0.77;;
6145;SDS011;3104;50.348;7.620;2023-08-06T10:58:52;0.87;;;0.63;;
6145;SDS011;3104;50.348;7.620;2023-08-06T11:01:19;0.80;;;0.80;;
6145;SDS011;3104;50.348;7.620;2023-08-06T11:03:46;0.70;;;0.70;;
6145;SDS011;3104;50.348;7.620;2023-08-06T11:06:17;1.47;;;0.60;;
6145;SDS011;3104;50.348;7.620;2023-08-06T11:08:50;0.73;;;0.73;;
6145;SDS011;3104;50.348;7.620;2023-08-06T11:11:18;0.70;;;0.70;;
6145;SDS011;3104;50.348;7.620;2023-08-06T11:13:44;1.27;;;0.97;;
6145;SDS011;3104;50.348;7.620;2023-08-06T11:16:14;0.80;;;0.80;;
6145;SDS011;3104;50.348;7.620;2023-08-06T11:18:40;0.70;;;0.70;;
6145;SDS011;3104;50.348;7.620;2023-08-06T11:21:07;0.80;;;0.80;;
6145;SDS011;3104;50.348;7.620;2023-08-06T11:23:33;1.10;;;1.00;;
6145;SDS011;3104;50.348;7.620;2023-08-06T11:26:00;3.97;;;1.10;;
6145;SDS011;3104;50.348;7.620;2023-08-06T11:28:26;1.40;;;1.00;;
6145;SDS011;3104;50.348;7.620;2023-08-06T11:30:51;1.20;;;1.10;;
6145;SDS011;3104;50.348;7.620;2023-08-06T11:33:21;0.77;;;0.77;;
6145;SDS011;3104;50.348;7.620;2023-08-06T11:35:47;1.20;;;0.80;;
6145;SDS011;3104;50.348;7.620;2023-08-06T11:38:13;1.13;;;1.03;;
6145;SDS011;3104;50.348;7.620;2023-08-06T11:40:39;1.60;;;0.83;;
6145;SDS011;3104;50.348;7.620;2023-08-06T11:43:05;2.40;;;0.90;;
6145;SDS011;3104;50.348;7.620;2023-08-06T11:45:31;1.10;;;1.00;;
6145;SDS011;3104;50.348;7.620;2023-08-06T11:48:00;1.30;;;1.20;;
6145;SDS011;3104;50.348;7.620;2023-08-06T11:50:26;2.03;;;0.80;;
6145;SDS011;3104;50.348;7.620;2023-08-06T11:52:59;0.80;;;0.80;;
6145;SDS011;3104;50.348;7.620;2023-08-06T11:55:25;0.93;;;0.93;;
6145;SDS011;3104;50.348;7.620;2023-08-06T11:57:53;1.00;;;0.90;;
6145;SDS011;3104;50.348;7.620;2023-08-06T12:00:19;1.83;;;1.00;;
6145;SDS011;3104;50.348;7.620;2023-08-06T12:02:47;3.47;;;0.90;;
6145;SDS011;3104;50.348;7.620;2023-08-06T12:05:20;1.17;;;0.90;;
6145;SDS011;3104;50.348;7.620;2023-08-06T12:07:51;0.87;;;0.83;;
6145;SDS011;3104;50.348;7.620;2023-08-06T12:10:18;2.20;;;1.33;;
6145;SDS011;3104;50.348;7.620;2023-08-06T12:12:45;1.23;;;0.97;;
6145;SDS011;3104;50.348;7.620;2023-08-06T12:15:11;1.67;;;1.30;;
6145;SDS011;3104;50.348;7.620;2023-08-06T12:17:37;1.20;;;1.10;;
6145;SDS011;3104;50.348;7.620;2023-08-06T12:20:03;0.93;;;0.93;;
6145;SDS011;3104;50.348;7.620;2023-08-06T12:22:29;2.47;;;1.10;;
6145;SDS011;3104;50.348;7.620;2023-08-06T12:25:04;1.00;;;0.90;;
6145;SDS011;3104;50.348;7.620;2023-08-06T12:27:36;1.97;;;1.20;;
6145;SDS011;3104;50.348;7.620;2023-08-06T12:30:06;0.93;;;0.93;;
6145;SDS011;3104;50.348;7.620;2023-08-06T12:32:33;1.30;;;0.83;;
6145;SDS011;3104;50.348;7.620;2023-08-06T12:34:59;0.90;;;0.90;;
6145;SDS011;3104;50.348;7.620;2023-08-06T12:37:26;1.03;;;1.03;;
6145;SDS011;3104;50.348;7.620;2023-08-06T12:39:51;0.97;;;0.97;;
6145;SDS011;3104;50.348;7.620;2023-08-06T12:42:17;0.80;;;0.80;;
6145;SDS011;3104;50.348;7.620;2023-08-06T12:44:43;0.80;;;0.80;;
6145;SDS011;3104;50.348;7.620;2023-08-06T12:47:08;0.97;;;0.90;;
6145;SDS011;3104;50.348;7.620;2023-08-06T12:49:34;1.27;;;0.93;;
6145;SDS011;3104;50.348;7.620;2023-08-06T12:52:00;3.20;;;1.20;;
6145;SDS011;3104;50.348;7.620;2023-08-06T12:54:26;1.13;;;1.00;;
6145;SDS011;3104;50.348;7.620;2023-08-06T12:56:52;1.20;;;1.07;;
6145;SDS011;3104;50.348;7.620;2023-08-06T12:59:18;1.20;;;1.10;;
6145;SDS011;3104;50.348;7.620;2023-08-06T13:01:44;1.67;;;1.27;;
6145;SDS011;3104;50.348;7.620;2023-08-06T13:04:10;1.33;;;1.23;;
6145;SDS011;3104;50.348;7.620;2023-08-06T13:06:39;1.30;;;1.20;;
6145;SDS011;3104;50.348;7.620;2023-08-06T13:09:10;1.40;;;1.20;;
6145;SDS011;3104;50.348;7.620;2023-08-06T13:11:37;2.43;;;1.57;;
6145;SDS011;3104;50.348;7.620;2023-08-06T13:14:08;1.33;;;1.20;;
6145;SDS011;3104;50.348;7.620;2023-08-06T13:16:36;2.10;;;1.27;;
6145;SDS011;3104;50.348;7.620;2023-08-06T13:19:02;1.70;;;1.10;;
6145;SDS011;3104;50.348;7.620;2023-08-06T13:21:36;1.50;;;1.23;;
6145;SDS011;3104;50.348;7.620;2023-08-06T13:24:25;0.90;;;0.90;;
6145;SDS011;3104;50.348;7.620;2023-08-06T13:26:52;1.00;;;1.00;;
6145;SDS011;3104;50.348;7.620;2023-08-06T13:29:18;1.90;;;1.80;;
6145;SDS011;3104;50.348;7.620;2023-08-06T13:31:43;1.90;;;1.10;;
6145;SDS011;3104;50.348;7.620;2023-08-06T13:34:09;4.53;;;2.03;;
6145;SDS011;3104;50.348;7.620;2023-08-06T13:36:34;1.57;;;1.40;;
6145;SDS011;3104;50.348;7.620;2023-08-06T13:39:00;1.10;;;1.10;;
6145;SDS011;3104;50.348;7.620;2023-08-06T13:41:26;1.97;;;1.67;;
6145;SDS011;3104;50.348;7.620;2023-08-06T13:43:51;3.13;;;1.70;;
6145;SDS011;3104;50.348;7.620;2023-08-06T13:46:17;3.30;;;1.50;;
6145;SDS011;3104;50.348;7.620;2023-08-06T13:48:44;1.50;;;1.40;;
6145;SDS011;3104;50.348;7.620;2023-08-06T13:51:11;1.33;;;1.23;;
6145;SDS011;3104;50.348;7.620;2023-08-06T13:53:38;1.57;;;1.30;;
6145;SDS011;3104;50.348;7.620;2023-08-06T13:56:07;1.63;;;1.30;;
6145;SDS011;3104;50.348;7.620;2023-08-06T13:58:35;1.30;;;1.20;;
6145;SDS011;3104;50.348;7.620;2023-08-06T14:01:01;1.17;;;0.83;;
6145;SDS011;3104;50.348;7.620;2023-08-06T14:03:26;1.33;;;1.17;;
6145;SDS011;3104;50.348;7.620;2023-08-06T14:05:52;1.07;;;0.97;;
6145;SDS011;3104;50.348;7.620;2023-08-06T14:08:20;1.23;;;1.13;;
6145;SDS011;3104;50.348;7.620;2023-08-06T14:10:45;2.00;;;1.10;;
6145;SDS011;3104;50.348;7.620;2023-08-06T14:13:11;1.27;;;1.17;;
6145;SDS011;3104;50.348;7.620;2023-08-06T14:15:37;1.87;;;1.50;;
6145;SDS011;3104;50.348;7.620;2023-08-06T14:18:05;1.80;;;1.50;;
6145;SDS011;3104;50.348;7.620;2023-08-06T14:20:33;3.07;;;1.30;;
6145;SDS011;3104;50.348;7.620;2023-08-06T14:22:59;1.10;;;1.10;;
6145;SDS011;3104;50.348;7.620;2023-08-06T14:25:24;1.13;;;1.03;;
6145;SDS011;3104;50.348;7.620;2023-08-06T14:27:50;0.90;;;0.90;;
6145;SDS011;3104;50.348;7.620;2023-08-06T14:30:16;0.90;;;0.90;;
6145;SDS011;3104;50.348;7.620;2023-08-06T14:32:41;0.90;;;0.90;;
6145;SDS011;3104;50.348;7.620;2023-08-06T14:35:07;1.30;;;1.30;;
6145;SDS011;3104;50.348;7.620;2023-08-06T14:37:33;2.20;;;1.00;;
6145;SDS011;3104;50.348;7.620;2023-08-06T14:39:58;0.97;;;0.97;;
6145;SDS011;3104;50.348;7.620;2023-08-06T14:42:24;0.90;;;0.90;;
6145;SDS011;3104;50.348;7.620;2023-08-06T14:44:49;5.80;;;1.20;;
6145;SDS011;3104;50.348;7.620;2023-08-06T14:47:16;3.10;;;1.20;;
6145;SDS011;3104;50.348;7.620;2023-08-06T14:49:41;1.20;;;1.10;;
6145;SDS011;3104;50.348;7.620;2023-08-06T14:52:07;2.10;;;1.20;;
6145;SDS011;3104;50.348;7.620;2023-08-06T14:54:32;1.60;;;1.40;;
6145;SDS011;3104;50.348;7.620;2023-08-06T14:56:58;2.10;;;1.00;;
6145;SDS011;3104;50.348;7.620;2023-08-06T14:59:24;1.13;;;1.07;;
6145;SDS011;3104;50.348;7.620;2023-08-06T15:01:49;1.30;;;1.20;;
6145;SDS011;3104;50.348;7.620;2023-08-06T15:04:16;1.03;;;1.03;;
6145;SDS011;3104;50.348;7.620;2023-08-06T15:06:42;2.40;;;1.60;;
6145;SDS011;3104;50.348;7.620;2023-08-06T15:09:07;2.80;;;1.80;;
6145;SDS011;3104;50.348;7.620;2023-08-06T15:11:33;3.03;;;1.50;;
6145;SDS011;3104;50.348;7.620;2023-08-06T15:13:58;0.90;;;0.90;;
6145;SDS011;3104;50.348;7.620;2023-08-06T15:16:25;2.20;;;1.40;;
6145;SDS011;3104;50.348;7.620;2023-08-06T15:18:51;1.00;;;0.97;;
6145;SDS011;3104;50.348;7.620;2023-08-06T15:21:17;1.90;;;1.10;;
6145;SDS011;3104;50.348;7.620;2023-08-06T15:23:43;1.37;;;1.10;;